Camooweal, Australia
Current Conditions -  °F | °C
As of 8:00 PM on Thursday 23 Oct 2014 (Local Time) from YBMA Reporting Station
Clear Clear  
Wind Chill: 86°   Ceiling: Unl
Heat Index: 86°   Visibility: 6mi
Dew Point: 39°   Wind: 7mph
Humidity: 19%   Direction: 70°ENE
Pressure: 29.97"   Gusts: NA
Location:  19.92°S, 138.12°E
Report Text: YBMA 231000Z AUTO 07006KT 9999 // NCD 30/04 Q1015
Loading
Personal Weather Stations






























Interactive Weather Map
Tropical Storm Tracking
New forecast layout! Learn more

10-Day Weather Forecast

Advertisements
Track Severe Weather on mobile